Time;durP1;ratioP1;P1;durP2;ratioP2;P2;SDS_P1;SDS_P2;PMS_P1;PMS_P2;Temp;Humidity;BMP_temperature;BMP_pressure;BME280_temperature;BME280_humidity;BME280_pressure;Samples;Min_cycle;Max_cycle;Signal;HPM_P1;HPM_P2
2022/08/03 00:01:34;;;;;;;11.30;2.42;;;;;;;19.90;100.00;101434.34;5092728;28;20056;-37
2022/08/03 00:04:02;;;;;;;14.27;2.88;;;;;;;19.89;100.00;101431.84;5092372;28;20074;-34
2022/08/03 00:06:30;;;;;;;11.32;3.30;;;;;;;19.88;100.00;101425.34;5091999;28;20097;-34
2022/08/03 00:09:05;;;;;;;11.63;2.70;;;;;;;19.88;100.00;101427.34;5091666;28;20063;-36
2022/08/03 00:11:32;;;;;;;9.43;2.40;;;;;;;19.88;100.00;101433.84;5092418;28;20095;-38
2022/08/03 00:14:02;;;;;;;9.27;2.28;;;;;;;19.88;100.00;101435.84;5091604;28;20056;-32
2022/08/03 00:16:30;;;;;;;10.80;2.47;;;;;;;19.87;100.00;101435.03;5092204;28;20043;-32
2022/08/03 00:18:58;;;;;;;10.00;2.67;;;;;;;19.87;100.00;101423.69;5092379;28;20056;-31
2022/08/03 00:21:28;;;;;;;11.43;2.65;;;;;;;19.88;100.00;101430.19;5091236;28;20417;-35
2022/08/03 00:23:56;;;;;;;8.65;2.35;;;;;;;19.87;100.00;101417.19;5092406;28;20048;-36
2022/08/03 00:26:24;;;;;;;12.30;2.50;;;;;;;19.88;100.00;101421.69;5091834;28;20100;-38
2022/08/03 00:28:52;;;;;;;11.45;2.53;;;;;;;19.88;100.00;101416.03;5091699;28;20138;-38
2022/08/03 00:31:21;;;;;;;12.82;2.90;;;;;;;19.88;100.00;101416.84;5091647;28;20052;-39
2022/08/03 00:34:09;;;;;;;13.98;3.00;;;;;;;19.86;100.00;101421.22;5071241;28;20056;-37
2022/08/03 00:36:39;;;;;;;14.85;2.92;;;;;;;19.86;100.00;101418.38;5088431;28;20527;-30
2022/08/03 00:39:07;;;;;;;16.17;3.30;;;;;;;19.87;100.00;101420.88;5092088;28;20509;-40
2022/08/03 00:41:34;;;;;;;13.70;2.67;;;;;;;19.86;100.00;101422.03;5090862;28;20058;-30
2022/08/03 00:44:02;;;;;;;14.13;2.78;;;;;;;19.87;100.00;101428.53;5091871;28;20055;-39
2022/08/03 00:46:32;;;;;;;14.95;2.67;;;;;;;19.89;100.00;101417.69;5091550;28;20058;-31
2022/08/03 00:49:00;;;;;;;11.35;2.65;;;;;;;19.87;100.00;101415.19;5091126;28;20413;-37
2022/08/03 00:51:28;;;;;;;14.15;2.92;;;;;;;19.87;100.00;101408.69;5091625;28;20043;-34
2022/08/03 00:53:55;;;;;;;13.13;2.92;;;;;;;19.87;100.00;101408.69;5091801;28;20497;-31
2022/08/03 00:56:23;;;;;;;11.55;2.70;;;;;;;19.86;100.00;101402.22;5090619;28;20047;-37
2022/08/03 00:58:53;;;;;;;10.65;2.47;;;;;;;19.86;100.00;101404.22;5091664;28;20164;-33
2022/08/03 01:01:21;;;;;;;10.27;2.30;;;;;;;19.86;100.00;101410.72;5091578;28;20048;-32
2022/08/03 01:03:50;;;;;;;10.63;2.70;;;;;;;19.85;100.00;101406.22;5091041;28;20052;-36
2022/08/03 01:06:19;;;;;;;14.80;2.65;;;;;;;19.85;100.00;101411.06;5091477;28;20493;-38
2022/08/03 01:08:54;;;;;;;12.85;2.70;;;;;;;19.86;100.00;101404.22;5080608;28;20105;-31
2022/08/03 01:11:29;;;;;;;13.65;2.80;;;;;;;19.85;100.00;101402.56;5091102;28;20043;-40
2022/08/03 01:14:04;;;;;;;14.20;3.17;;;;;;;19.84;100.00;101398.91;5080808;28;20079;-33
2022/08/03 01:16:55;;;;;;;10.88;2.75;;;;;;;19.83;100.00;101394.41;5090660;28;20401;-30
2022/08/03 01:19:36;;;;;;;8.50;2.35;;;;;;;19.84;100.00;101396.06;5092766;28;20052;-32
2022/08/03 01:22:17;;;;;;;10.52;2.70;;;;;;;19.83;100.00;101391.56;5095495;28;20517;-32
2022/08/03 01:24:53;;;;;;;7.83;2.67;;;;;;;19.82;100.00;101391.91;5095136;28;20048;-30
2022/08/03 01:27:25;;;;;;;10.02;2.42;;;;;;;19.82;100.00;101389.09;5095458;28;20137;-35
2022/08/03 01:30:02;;;;;;;10.82;2.50;;;;;;;19.81;100.00;101384.59;5095510;28;20489;-31
2022/08/03 01:32:42;;;;;;;8.60;2.20;;;;;;;19.83;100.00;101387.91;5094771;28;20051;-30
2022/08/03 01:35:34;;;;;;;9.10;2.38;;;;;;;19.79;100.00;101384.94;5095511;28;20120;-30
2022/08/03 01:38:13;;;;;;;11.95;2.53;;;;;;;19.81;100.00;101384.59;5094388;28;20050;-31
2022/08/03 01:40:44;;;;;;;8.75;2.25;;;;;;;19.79;100.00;101382.13;5095620;28;20432;-31
2022/08/03 01:43:16;;;;;;;10.48;2.58;;;;;;;19.79;100.00;101378.44;5095338;28;20146;-30
2022/08/03 01:46:06;;;;;;;;;;;;;;;19.73;100.00;101380.69;5095052;28;20043;-34
2022/08/03 01:48:37;;;;;;;10.57;2.17;;;;;;;19.71;100.00;101376.56;5093965;28;20292;-32
2022/08/03 01:51:06;;;;;;;16.95;2.90;;;;;;;19.73;100.00;101375.03;5095178;28;20040;-31
2022/08/03 01:53:36;;;;;;;12.70;2.70;;;;;;;19.75;100.00;101378.34;5094481;28;20066;-32
2022/08/03 01:56:06;;;;;;;9.82;2.40;;;;;;;19.76;100.00;101367.84;5095239;28;20044;-35
2022/08/03 01:58:36;;;;;;;11.55;2.67;;;;;;;19.74;100.00;101370.19;5094010;28;20044;-30
2022/08/03 02:01:05;;;;;;;12.35;2.83;;;;;;;19.74;100.00;101371.03;5094799;28;20158;-40
2022/08/03 02:03:38;;;;;;;9.02;2.80;;;;;;;19.76;100.00;101370.69;5094884;28;20044;-34
2022/08/03 02:06:27;;;;;;;8.88;2.63;;;;;;;19.71;100.00;101368.88;5094354;28;20044;-33
2022/08/03 02:09:17;;;;;;;7.57;2.33;;;;;;;19.71;100.00;101379.38;5094598;28;20056;-32
2022/08/03 02:11:47;;;;;;;11.45;2.47;;;;;;;19.71;100.00;101373.72;5094614;28;20047;-34
2022/08/03 02:14:17;;;;;;;14.43;2.58;;;;;;;19.71;100.00;101368.06;5094102;28;20044;-34
2022/08/03 02:16:48;;;;;;;8.27;2.15;;;;;;;19.72;100.00;101372.56;5094706;28;20055;-39
2022/08/03 02:19:18;;;;;;;9.82;2.58;;;;;;;19.70;100.00;101372.91;5094282;28;20370;-34
2022/08/03 02:21:47;;;;;;;14.40;3.05;;;;;;;19.69;100.00;101368.41;5094036;28;20062;-32
2022/08/03 02:24:28;;;;;;;9.23;2.22;;;;;;;19.68;100.00;101365.91;5094516;28;20122;-35
2022/08/03 02:26:56;;;;;;;14.68;3.00;;;;;;;19.67;100.00;101365.09;5093768;28;20050;-30
2022/08/03 02:29:27;;;;;;;8.02;2.20;;;;;;;19.66;100.00;101369.09;5094237;28;20059;-41
2022/08/03 02:32:10;;;;;;;7.47;2.20;;;;;;;19.65;100.00;101363.78;5093186;28;20091;-30
2022/08/03 02:34:41;;;;;;;10.27;3.13;;;;;;;19.66;100.00;101365.44;5093716;28;20066;-32
2022/08/03 02:37:12;;;;;;;10.70;2.50;;;;;;;19.63;100.00;101360.47;5094346;28;20105;-34
2022/08/03 02:39:40;;;;;;;13.75;3.35;;;;;;;19.63;100.00;101358.47;5094022;28;20453;-30
2022/08/03 02:42:10;;;;;;;11.82;2.38;;;;;;;19.64;100.00;101365.78;5093666;28;20707;-31
2022/08/03 02:44:46;;;;;;;12.80;2.70;;;;;;;19.65;100.00;101363.78;5094066;28;20115;-31
2022/08/03 02:47:20;;;;;;;10.38;2.80;;;;;;;19.64;100.00;101362.13;5094007;28;20063;-32
2022/08/03 02:49:49;;;;;;;8.15;2.30;;;;;;;19.64;100.00;101359.28;5093525;28;20082;-31
2022/08/03 02:52:21;;;;;;;7.75;2.30;;;;;;;19.63;100.00;101358.47;5094257;28;20112;-31
2022/08/03 02:54:54;;;;;;;13.85;2.92;;;;;;;19.62;100.00;101353.97;5093200;28;20051;-33
2022/08/03 02:57:24;;;;;;;9.93;2.30;;;;;;;19.61;100.00;101350.31;5082846;28;20134;-35
2022/08/03 02:59:55;;;;;;;11.23;2.47;;;;;;;19.60;100.00;101348.66;5093955;28;20032;-35
2022/08/03 03:02:25;;;;;;;8.68;2.45;;;;;;;19.60;100.00;101345.81;5093124;28;20238;-37
2022/08/03 03:04:55;;;;;;;12.68;2.53;;;;;;;19.59;100.00;101355.50;5093854;28;20052;-38
2022/08/03 03:07:43;;;;;;;11.68;2.70;;;;;;;19.56;100.00;101344.91;5082350;28;20048;-31
2022/08/03 03:10:20;;;;;;;12.40;2.40;;;;;;;19.57;100.00;101342.91;5093322;28;20105;-34
2022/08/03 03:12:50;;;;;;;12.55;2.80;;;;;;;19.57;100.00;101340.06;5093629;28;20056;-33
2022/08/03 03:15:18;;;;;;;10.35;2.58;;;;;;;19.57;100.00;101345.72;5093129;28;20059;-38
2022/08/03 03:17:49;;;;;;;9.88;2.65;;;;;;;19.56;100.00;101344.91;5092788;28;20088;-35
2022/08/03 03:20:17;;;;;;;7.87;2.37;;;;;;;19.55;100.00;101348.91;5093378;28;20040;-35
2022/08/03 03:22:59;;;;;;;9.02;2.60;;;;;;;19.55;100.00;101342.41;5088959;28;20283;-32
2022/08/03 03:25:28;;;;;;;10.15;2.45;;;;;;;19.55;100.00;101351.72;5091428;28;20051;-34
2022/08/03 03:27:56;;;;;;;10.88;2.90;;;;;;;19.54;100.00;101346.41;5091156;28;20472;-31
2022/08/03 03:30:25;;;;;;;10.93;2.45;;;;;;;19.54;100.00;101346.41;5091002;28;20055;-31
2022/08/03 03:32:55;;;;;;;13.68;2.85;;;;;;;19.55;100.00;101350.91;5091855;28;20069;-38
2022/08/03 03:35:22;;;;;;;11.23;2.88;;;;;;;19.53;100.00;101348.41;5092185;28;20102;-31
2022/08/03 03:37:51;;;;;;;10.88;3.08;;;;;;;19.52;100.00;101360.91;5091358;28;20070;-33
2022/08/03 03:40:21;;;;;;;12.73;2.92;;;;;;;19.52;100.00;101352.44;5093091;28;20043;-31
2022/08/03 03:42:49;;;;;;;8.75;2.55;;;;;;;19.52;100.00;101352.44;5092264;28;20056;-39
2022/08/03 03:45:18;;;;;;;8.40;2.80;;;;;;;19.52;100.00;101348.75;5072327;28;20055;-31
2022/08/03 03:47:46;;;;;;;10.55;2.40;;;;;;;19.51;100.00;101359.25;5086270;28;20135;-40
2022/08/03 03:50:18;;;;;;;11.82;2.50;;;;;;;19.51;100.00;101355.59;5092436;28;20408;-31
2022/08/03 03:52:46;;;;;;;11.30;2.50;;;;;;;19.48;100.00;101359.91;5092072;28;20050;-39
2022/08/03 03:55:16;;;;;;;15.18;2.90;;;;;;;19.48;100.00;101365.56;5092405;28;20129;-31
2022/08/03 03:57:44;;;;;;;12.70;2.88;;;;;;;19.48;100.00;101365.56;5092067;28;20044;-36
2022/08/03 04:00:14;;;;;;;11.90;2.58;;;;;;;19.48;100.00;101361.91;5092089;28;20496;-31
2022/08/03 04:02:42;;;;;;;10.55;2.90;;;;;;;19.47;100.00;101365.94;5092469;28;20047;-33
2022/08/03 04:11:00;;;;;;;8.55;2.08;;;;;;;19.43;100.00;101377.09;5092630;28;20040;-38
2022/08/03 04:13:33;;;;;;;8.52;2.55;;;;;;;19.40;100.00;101377.78;5091747;28;20520;-34
2022/08/03 04:16:03;;;;;;;11.05;2.80;;;;;;;19.41;100.00;101370.97;5092578;28;20048;-31
2022/08/03 04:18:33;;;;;;;9.32;2.40;;;;;;;19.41;100.00;101379.44;5091830;28;20057;-39
2022/08/03 04:21:03;;;;;;;14.20;3.10;;;;;;;19.42;100.00;101374.63;5091265;28;20048;-31
2022/08/03 04:23:35;;;;;;;11.32;2.80;;;;;;;19.42;100.00;101377.44;5092242;28;20063;-40
2022/08/03 04:26:08;;;;;;;9.80;3.00;;;;;;;19.44;100.00;101375.09;5091593;28;20058;-34
2022/08/03 04:28:39;;;;;;;11.95;2.55;;;;;;;19.45;100.00;101371.09;5091915;28;20124;-32
2022/08/03 04:31:07;;;;;;;13.13;2.97;;;;;;;19.46;100.00;101378.41;5092165;28;20048;-31
2022/08/03 04:33:38;;;;;;;9.18;2.50;;;;;;;19.46;100.00;101370.75;5091314;28;20074;-31
2022/08/03 04:36:09;;;;;;;13.27;2.78;;;;;;;19.48;100.00;101374.06;5092177;28;20505;-30
2022/08/03 04:38:44;;;;;;;14.32;2.88;;;;;;;19.48;100.00;101376.06;5091933;28;20054;-37
2022/08/03 04:41:12;;;;;;;8.48;2.53;;;;;;;19.48;100.00;101373.25;5091171;28;20063;-33
2022/08/03 04:43:41;;;;;;;12.70;2.75;;;;;;;19.49;100.00;101384.22;5091716;28;20051;-31
2022/08/03 04:46:10;;;;;;;10.40;2.80;;;;;;;19.50;100.00;101374.59;5091929;28;20044;-31
2022/08/03 04:48:38;;;;;;;10.65;3.20;;;;;;;19.52;100.00;101377.91;5091406;28;20048;-32
2022/08/03 04:51:11;;;;;;;9.50;2.50;;;;;;;19.55;100.00;101384.88;5081163;28;20070;-31
2022/08/03 04:53:41;;;;;;;10.63;2.75;;;;;;;19.59;100.00;101389.47;5091022;28;20038;-34
2022/08/03 04:56:09;;;;;;;12.68;2.78;;;;;;;19.64;100.00;101391.28;5091238;28;20047;-36
2022/08/03 04:58:36;;;;;;;12.05;2.78;;;;;;;19.65;100.00;101384.44;5091732;28;20044;-39
2022/08/03 05:01:04;;;;;;;11.02;2.80;;;;;;;19.69;100.00;101393.91;5088085;28;20055;-38
2022/08/03 05:03:32;;;;;;;14.27;3.20;;;;;;;19.70;100.00;101389.88;5091510;28;20048;-36
2022/08/03 05:06:00;;;;;;;12.52;2.88;;;;;;;19.74;100.00;101387.19;5091093;28;20048;-35
2022/08/03 05:08:39;;;;;;;10.98;3.10;;;;;;;19.77;100.00;101389.34;5091196;28;20524;-35
2022/08/03 05:11:15;;;;;;;11.50;3.15;;;;;;;19.78;100.00;101383.31;5091615;28;20106;-38
2022/08/03 05:13:42;;;;;;;12.13;3.13;;;;;;;19.82;100.00;101380.59;5091622;28;20568;-41
2022/08/03 05:16:11;;;;;;;20.85;4.28;;;;;;;19.84;100.00;101389.56;5090543;28;20051;-31
2022/08/03 05:18:38;;;;;;;11.60;3.03;;;;;;;19.85;100.00;101386.38;5091482;28;20050;-34
2022/08/03 05:21:06;;;;;;;15.88;3.80;;;;;;;19.86;100.00;101388.03;5091232;28;20079;-30
2022/08/03 05:23:34;;;;;;;15.93;3.67;;;;;;;19.89;100.00;101397.84;5091109;28;20434;-31
2022/08/03 05:26:02;;;;;;;16.52;3.55;;;;;;;19.92;100.00;101394.31;5091529;28;20048;-35
2022/08/03 05:28:31;;;;;;;14.02;3.47;;;;;;;19.93;100.00;101398.81;5091396;28;20048;-33
2022/08/03 05:30:59;;;;;;;11.75;3.65;;;;;;;19.96;100.00;101389.63;5090742;28;20051;-42
2022/08/03 05:33:26;;;;;;;13.63;3.40;;;;;;;19.98;100.00;101395.78;5091339;28;20048;-31
2022/08/03 05:35:54;;;;;;;16.10;4.28;;;;;;;20.00;100.00;101404.72;5091316;28;20044;-33
2022/08/03 05:38:31;;;;;;;11.43;2.80;;;;;;;20.00;100.00;101407.56;5091135;28;20374;-32
2022/08/03 05:41:02;;;;;;;12.52;3.22;;;;;;;20.01;100.00;101400.72;5090118;28;20040;-35
2022/08/03 05:43:52;;;;;;;17.10;3.42;;;;;;;20.06;100.00;101400.50;5090466;28;20044;-34
2022/08/03 05:46:21;;;;;;;11.95;3.80;;;;;;;20.10;100.00;101414.78;5091013;28;20063;-34
2022/08/03 05:48:49;;;;;;;14.05;3.65;;;;;;;20.14;100.00;101404.41;5090711;28;20161;-32
2022/08/03 05:51:17;;;;;;;13.43;3.85;;;;;;;20.19;100.00;101407.84;5088610;28;20405;-32
2022/08/03 05:53:45;;;;;;;15.63;4.18;;;;;;;20.23;100.00;101403.13;5089695;28;20626;-31
2022/08/03 05:56:13;;;;;;;11.43;3.25;;;;;;;20.27;100.00;101398.41;5090874;28;20446;-32
2022/08/03 05:58:44;;;;;;;8.98;2.95;;;;;;;20.33;100.00;101401.03;5090725;28;20040;-34
2022/08/03 06:01:14;;;;;;;13.40;3.67;;;;;;;20.38;100.00;101403.69;5091089;28;20151;-34
2022/08/03 06:03:42;;;;;;;14.25;3.65;;;;;;;20.42;100.00;101396.94;5090985;28;20048;-33
2022/08/03 06:06:10;;;;;;;16.63;4.15;;;;;;;20.43;100.00;101400.59;5092562;28;20409;-32
2022/08/03 06:08:39;;;;;;;15.38;4.03;;;;;;;20.44;100.00;101396.56;5094259;28;20063;-33
2022/08/03 06:11:06;;;;;;;12.60;3.05;;;;;;;20.46;100.00;101383.69;5094790;28;20401;-32
2022/08/03 06:13:34;;;;;;;11.00;3.13;;;;;;;20.51;100.00;101388.31;5094441;28;20052;-31
2022/08/03 06:16:02;;;;;;;9.98;3.90;;;;;;;20.53;100.00;101389.63;5094600;28;20511;-39
2022/08/03 06:18:31;;;;;;;13.65;3.08;;;;;;;20.59;100.00;101391.03;5092909;28;20072;-35
2022/08/03 06:20:59;;;;;;;15.45;3.78;;;;;;;20.63;100.00;101403.31;5094718;28;20052;-34
2022/08/03 06:23:43;;;;;;;16.92;3.60;;;;;;;20.69;100.00;101400.25;5094220;28;20105;-37
2022/08/03 06:26:27;;;;;;;16.63;3.72;;;;;;;20.71;100.00;101410.06;5094096;28;20052;-33
2022/08/03 06:28:55;;;;;;;16.80;4.50;;;;;;;20.76;100.00;101412.66;5094191;28;20050;-33
2022/08/03 06:31:24;;;;;;;12.63;3.33;;;;;;;20.86;100.00;101414.19;5094257;28;20044;-32
2022/08/03 06:34:01;;;;;;;14.45;3.60;;;;;;;20.98;100.00;101411.38;5092769;28;20071;-37
2022/08/03 06:36:50;;;;;;;12.50;3.30;;;;;;;21.10;100.00;101413.34;5094579;28;20063;-37
2022/08/03 06:39:19;;;;;;;14.85;3.53;;;;;;;21.22;100.00;101405.66;5090259;28;20066;-32
2022/08/03 06:41:49;;;;;;;12.50;3.60;;;;;;;21.46;100.00;101410.44;5094027;28;20591;-38
2022/08/03 06:44:17;;;;;;;15.48;4.10;;;;;;;21.70;100.00;101409.53;5092386;28;20069;-33
2022/08/03 06:46:46;;;;;;;11.32;2.70;;;;;;;21.96;100.00;101409.88;5093416;28;20052;-33
2022/08/03 06:49:15;;;;;;;14.27;3.30;;;;;;;22.10;100.00;101411.50;5094114;28;20050;-39
2022/08/03 06:51:43;;;;;;;11.35;3.33;;;;;;;22.23;100.00;101405.34;5094269;28;20075;-34
2022/08/03 06:54:31;;;;;;;11.95;2.80;;;;;;;22.48;100.00;101408.88;5093116;28;20549;-32
2022/08/03 06:57:00;;;;;;;11.52;3.20;;;;;;;22.68;100.00;101404.09;5094289;28;20062;-41
2022/08/03 06:59:28;;;;;;;16.10;3.38;;;;;;;22.87;100.00;101406.22;5093461;28;20378;-31
2022/08/03 07:02:17;;;;;;;13.82;3.30;;;;;;;22.95;100.00;101417.41;5093441;28;20055;-33
2022/08/03 07:04:47;;;;;;;11.43;3.00;;;;;;;22.92;100.00;101414.47;5093738;28;20055;-37
2022/08/03 07:07:16;;;;;;;12.98;3.50;;;;;;;22.99;100.00;101421.13;5093579;28;20046;-35
2022/08/03 07:09:43;;;;;;;12.40;4.30;;;;;;;22.92;100.00;101417.31;5093054;28;20478;-31
2022/08/03 07:12:26;;;;;;;12.95;3.97;;;;;;;22.86;100.00;101425.31;5094062;28;20040;-33
2022/08/03 07:14:54;;;;;;;13.25;3.60;;;;;;;22.66;100.00;101432.91;5092730;28;20486;-38
2022/08/03 07:17:29;;;;;;;14.48;3.58;;;;;;;22.49;100.00;101432.44;5072814;28;20045;-33
2022/08/03 07:19:59;;;;;;;14.70;3.75;;;;;;;22.42;100.00;101429.41;5089091;28;20044;-33
2022/08/03 07:22:27;;;;;;;15.45;3.55;;;;;;;22.33;100.00;101433.28;5092917;28;20052;-39
2022/08/03 07:24:56;;;;;;;13.10;3.35;;;;;;;22.32;100.00;101437.31;5093425;28;20108;-44
2022/08/03 07:27:25;;;;;;;15.68;3.28;;;;;;;22.24;100.00;101435.44;5093283;28;20058;-37
2022/08/03 07:29:53;;;;;;;13.88;3.67;;;;;;;22.24;100.00;101443.97;5092566;28;20040;-34
2022/08/03 07:32:21;;;;;;;13.70;3.92;;;;;;;22.20;100.00;101443.03;5093428;28;20051;-41
2022/08/03 07:34:49;;;;;;;16.30;4.13;;;;;;;22.18;100.00;101450.31;5093200;28;20036;-39
2022/08/03 07:37:18;;;;;;;16.35;4.43;;;;;;;22.16;100.00;101449.84;5092695;28;20043;-39
2022/08/03 07:39:46;;;;;;;13.38;3.90;;;;;;;22.10;100.00;101457.81;5092863;28;20040;-38
2022/08/03 07:42:14;;;;;;;15.23;4.03;;;;;;;22.08;100.00;101462.19;5093039;28;20047;-41
2022/08/03 07:44:42;;;;;;;10.25;3.60;;;;;;;22.04;100.00;101466.94;5092301;28;20119;-37
2022/08/03 07:47:09;;;;;;;15.65;3.70;;;;;;;21.91;100.00;101469.81;5093025;28;20047;-33
2022/08/03 07:49:49;;;;;;;14.82;4.18;;;;;;;21.83;100.00;101467.94;5092605;28;20040;-34
2022/08/03 07:55:05;;;;;;;14.52;4.47;;;;;;;21.72;100.00;101458.28;5092656;28;20460;-41
2022/08/03 07:57:33;;;;;;;12.77;3.70;;;;;;;21.72;100.00;101469.66;5092279;28;20060;-36
2022/08/03 08:00:01;;;;;;;12.48;3.72;;;;;;;21.67;100.00;101465.06;5092689;28;20044;-37
2022/08/03 08:02:38;;;;;;;16.13;4.20;;;;;;;21.62;100.00;101478.66;5082300;28;20056;-32
2022/08/03 08:05:07;;;;;;;12.48;3.83;;;;;;;21.53;100.00;101478.81;5092130;28;20051;-35
2022/08/03 08:07:36;;;;;;;15.70;4.40;;;;;;;21.36;100.00;101478.28;5092438;28;20369;-32
2022/08/03 08:10:05;;;;;;;13.82;4.35;;;;;;;21.25;100.00;101477.91;5092125;28;20405;-39
2022/08/03 08:12:33;;;;;;;13.88;4.10;;;;;;;21.19;100.00;101477.28;5091875;28;20489;-34
2022/08/03 08:15:01;;;;;;;17.35;4.53;;;;;;;21.20;100.00;101481.00;5092380;28;20055;-37
2022/08/03 08:17:29;;;;;;;13.43;4.00;;;;;;;21.18;100.00;101472.78;5092220;28;20050;-36
2022/08/03 08:19:57;;;;;;;10.18;3.40;;;;;;;21.18;100.00;101474.84;5092055;28;20052;-36
2022/08/03 08:22:25;;;;;;;14.02;3.85;;;;;;;21.19;100.00;101482.13;5092388;28;20048;-41
2022/08/03 08:24:59;;;;;;;15.52;4.60;;;;;;;21.19;100.00;101487.81;5092160;28;20546;-33
2022/08/03 08:27:28;;;;;;;17.73;4.30;;;;;;;21.20;100.00;101475.31;5091627;28;20052;-33
2022/08/03 08:30:17;;;;;;;14.48;4.45;;;;;;;21.15;100.00;101475.53;5091451;28;20036;-35
2022/08/03 08:32:46;;;;;;;12.23;4.40;;;;;;;21.09;100.00;101469.28;5091361;28;20081;-33
2022/08/03 08:35:14;;;;;;;11.70;3.67;;;;;;;21.13;100.00;101475.06;5092364;28;20040;-32
2022/08/03 08:37:42;;;;;;;12.45;3.55;;;;;;;21.20;100.00;101478.16;5091705;28;20417;-33
2022/08/03 08:40:20;;;;;;;16.13;5.30;;;;;;;21.20;100.00;101481.00;5091660;28;20055;-36
2022/08/03 08:42:48;;;;;;;16.60;5.07;;;;;;;21.18;100.00;101487.00;5091828;28;20055;-39
2022/08/03 08:45:26;;;;;;;14.60;4.32;;;;;;;21.18;100.00;101489.03;5092152;28;20052;-36
2022/08/03 08:47:55;;;;;;;19.95;4.65;;;;;;;21.17;100.00;101485.38;5091267;28;20056;-33
2022/08/03 08:50:29;;;;;;;16.73;5.15;;;;;;;21.14;100.00;101491.75;5072000;28;20048;-33
2022/08/03 08:53:01;;;;;;;13.32;3.95;;;;;;;21.11;100.00;101488.78;5086362;28;20054;-32
2022/08/03 08:55:31;;;;;;;11.07;4.05;;;;;;;21.17;100.00;101498.72;5091356;28;20109;-32
2022/08/03 08:58:22;;;;;;;11.77;3.63;;;;;;;21.17;100.00;101498.72;5091830;28;20040;-37
2022/08/03 09:00:50;;;;;;;11.82;4.00;;;;;;;21.18;100.00;101503.22;5071058;28;20036;-37
2022/08/03 09:03:18;;;;;;;13.80;3.55;;;;;;;21.13;100.00;101497.78;5086509;28;20047;-33
2022/08/03 09:05:58;;;;;;;14.48;3.40;;;;;;;21.09;100.00;101502.50;5071369;28;20049;-38
2022/08/03 09:08:26;;;;;;;13.30;3.75;;;;;;;21.11;100.00;101511.50;5085696;28;20048;-40
2022/08/03 09:10:55;;;;;;;11.90;3.63;;;;;;;21.10;100.00;101516.34;5091835;28;20047;-41
2022/08/03 09:13:23;;;;;;;13.00;3.88;;;;;;;21.05;100.00;101513.72;5091310;28;20135;-34
2022/08/03 09:16:09;;;;;;;12.35;3.50;;;;;;;21.04;100.00;101514.09;5089695;28;20091;-35
2022/08/03 09:18:38;;;;;;;12.77;3.75;;;;;;;20.95;100.00;101511.38;5091753;28;20125;-38
2022/08/03 09:21:21;;;;;;;11.63;3.70;;;;;;;20.94;100.00;101507.72;5091518;28;20048;-37
2022/08/03 09:24:05;;;;;;;10.30;3.28;;;;;;;20.98;100.00;101514.31;5091418;28;20037;-36
2022/08/03 09:26:52;;;;;;;11.60;3.20;;;;;;;21.05;100.00;101519.41;5071160;28;20405;-36
2022/08/03 09:29:21;;;;;;;9.85;3.63;;;;;;;21.06;100.00;101514.56;5087487;28;20071;-39
2022/08/03 09:31:49;;;;;;;8.68;2.80;;;;;;;20.99;100.00;101515.97;5071422;28;20055;-33
2022/08/03 09:34:18;;;;;;;10.15;3.53;;;;;;;21.06;100.00;101520.25;5085414;28;20052;-35
2022/08/03 09:36:47;;;;;;;12.10;3.42;;;;;;;21.09;100.00;101525.22;5091061;28;20075;-35
2022/08/03 09:39:16;;;;;;;12.52;3.17;;;;;;;21.04;100.00;101516.91;5091152;28;20394;-34
2022/08/03 09:41:46;;;;;;;13.00;3.60;;;;;;;20.98;100.00;101513.50;5094863;28;20040;-33
2022/08/03 09:44:15;;;;;;;11.90;3.75;;;;;;;20.97;100.00;101523.22;5094751;28;20584;-40
2022/08/03 09:46:53;;;;;;;8.48;3.05;;;;;;;20.97;100.00;101504.16;5095589;28;20052;-34
2022/08/03 09:49:22;;;;;;;14.18;3.15;;;;;;;21.04;100.00;101522.59;5094876;28;20048;-43
2022/08/03 09:51:51;;;;;;;10.52;3.45;;;;;;;21.15;100.00;101518.13;5094831;28;20145;-38
2022/08/03 09:54:39;;;;;;;7.65;2.85;;;;;;;21.22;100.00;101512.69;5095415;28;20050;-33
2022/08/03 09:57:07;;;;;;;12.38;3.15;;;;;;;21.22;100.00;101512.69;5094697;28;20044;-34
2022/08/03 09:59:36;;;;;;;8.10;3.47;;;;;;;21.25;100.00;101512.81;5094911;28;20047;-38
2022/08/03 10:02:20;;;;;;;10.80;3.20;;;;;;;21.31;100.00;101531.28;5094907;28;20504;-37
2022/08/03 10:04:51;;;;;;;11.57;3.45;;;;;;;21.32;100.00;101523.59;5094644;28;20126;-36
2022/08/03 10:07:20;;;;;;;12.25;3.20;;;;;;;21.33;100.00;101518.72;5095697;28;20036;-34
2022/08/03 10:09:56;;;;;;;11.52;3.42;;;;;;;21.30;100.00;101520.28;5094467;28;20063;-33
2022/08/03 10:12:24;;;;;;;12.70;3.20;;;;;;;21.23;100.00;101522.88;5094410;28;20054;-34
2022/08/03 10:14:55;;;;;;;9.88;3.30;;;;;;;21.17;100.00;101527.13;5094485;28;20044;-33
2022/08/03 10:17:23;;;;;;;12.88;4.10;;;;;;;21.21;100.00;101528.06;5094718;28;20052;-34
2022/08/03 10:19:51;;;;;;;10.70;2.85;;;;;;;21.21;100.00;101534.56;5093989;28;20040;-32
2022/08/03 10:22:21;;;;;;;8.73;3.72;;;;;;;21.19;100.00;101536.91;5094674;28;20044;-32
2022/08/03 10:24:55;;;;;;;8.00;2.97;;;;;;;21.17;100.00;101529.94;5093836;28;20424;-34
2022/08/03 10:27:24;;;;;;;9.43;2.78;;;;;;;21.24;100.00;101533.03;5083873;28;20052;-35
2022/08/03 10:29:53;;;;;;;10.35;2.97;;;;;;;21.30;100.00;101537.31;5094084;28;20101;-39
2022/08/03 10:32:30;;;;;;;11.35;3.00;;;;;;;21.32;100.00;101532.09;5094007;28;20497;-35
2022/08/03 10:35:04;;;;;;;11.27;3.20;;;;;;;21.33;100.00;101524.41;5094443;28;20457;-35
2022/08/03 10:37:55;;;;;;;12.02;2.88;;;;;;;21.40;100.00;101531.13;5083672;28;20462;-34
2022/08/03 10:40:27;;;;;;;8.95;3.10;;;;;;;21.47;100.00;101525.69;5093826;28;20040;-37
2022/08/03 10:43:20;;;;;;;7.82;2.78;;;;;;;21.58;100.00;101524.00;5086300;28;20055;-40
2022/08/03 10:45:49;;;;;;;10.30;2.90;;;;;;;21.59;100.00;101519.97;5091948;28;20404;-34
2022/08/03 10:48:19;;;;;;;8.82;3.00;;;;;;;21.67;100.00;101529.56;5094493;28;20148;-41
2022/08/03 10:50:49;;;;;;;9.73;3.05;;;;;;;21.70;100.00;101528.84;5094095;28;20048;-33
2022/08/03 10:53:34;;;;;;;7.47;2.72;;;;;;;21.77;100.00;101528.25;5092471;28;20063;-34
2022/08/03 10:59:07;;;;;;;8.23;2.53;;;;;;;21.79;100.00;101537.22;5093871;28;20047;-38
2022/08/03 11:01:51;;;;;;;9.15;3.15;;;;;;;21.76;100.00;101532.28;5093200;28;20040;-41
2022/08/03 11:04:29;;;;;;;11.77;3.45;;;;;;;21.75;100.00;101534.28;5093953;28;20059;-34
2022/08/03 11:07:21;;;;;;;8.50;2.35;;;;;;;21.82;100.00;101545.03;5092929;28;20122;-38
2022/08/03 11:09:50;;;;;;;;;;;;;;;21.75;100.00;101527.78;5094416;28;20412;-42
2022/08/03 11:12:25;;;;;;;8.65;2.47;;;;;;;21.77;100.00;101534.75;5093383;28;20424;-35
2022/08/03 11:15:00;;;;;;;9.77;2.65;;;;;;;21.79;100.00;101548.56;5093172;28;20051;-35
2022/08/03 11:17:28;;;;;;;8.88;3.28;;;;;;;21.64;100.00;101539.63;5093485;28;20040;-34
2022/08/03 11:19:58;;;;;;;10.75;3.05;;;;;;;21.59;100.00;101537.00;5093575;28;20056;-33
2022/08/03 11:22:46;;;;;;;11.93;3.30;;;;;;;21.65;100.00;101537.59;5093079;28;20047;-32
2022/08/03 11:25:15;;;;;;;13.80;3.72;;;;;;;21.65;100.00;101531.94;5093468;28;20052;-33
2022/08/03 11:28:25;;;;;;;12.35;2.90;;;;;;;21.62;100.00;101533.47;5092863;28;20044;-31
2022/08/03 11:30:53;;;;;;;10.93;3.25;;;;;;;21.63;100.00;101532.28;5073418;28;20435;-32
2022/08/03 11:33:31;;;;;;;11.75;3.65;;;;;;;21.67;100.00;101546.59;5088282;28;20512;-35
2022/08/03 11:36:01;;;;;;;9.45;3.33;;;;;;;21.65;100.00;101535.59;5072615;28;20462;-31
2022/08/03 11:38:29;;;;;;;9.38;3.35;;;;;;;21.62;100.00;101533.47;5088310;28;20047;-38
2022/08/03 11:40:57;;;;;;;9.95;3.42;;;;;;;21.64;100.00;101539.63;5093050;28;20050;-36
2022/08/03 11:43:45;;;;;;;11.00;3.67;;;;;;;21.63;100.00;101549.31;5092418;28;20047;-39
2022/08/03 11:46:17;;;;;;;8.10;3.25;;;;;;;21.63;100.00;101537.97;5092929;28;20088;-30